createdAt,value
2023-05-01T00:00:20.271Z,12.65
2023-05-01T00:02:54.553Z,12.73
2023-05-01T00:05:23.892Z,12.98
2023-05-01T00:07:53.448Z,13.68
2023-05-01T00:10:22.568Z,12.95
2023-05-01T00:12:51.870Z,12.05
2023-05-01T00:15:22.311Z,13.20
2023-05-01T00:17:52.034Z,13.07
2023-05-01T00:20:21.769Z,13.35
2023-05-01T00:22:50.773Z,13.85
2023-05-01T00:25:19.830Z,15.00
2023-05-01T00:27:49.436Z,12.85
2023-05-01T00:30:18.887Z,14.55
2023-05-01T00:32:49.305Z,14.95
2023-05-01T00:35:18.624Z,13.38
2023-05-01T00:37:48.156Z,13.68
2023-05-01T00:40:17.451Z,13.95
2023-05-01T00:42:46.665Z,14.50
2023-05-01T00:45:16.111Z,13.80
2023-05-01T00:47:45.256Z,13.98
2023-05-01T00:50:15.996Z,13.95
2023-05-01T00:52:44.995Z,14.25
2023-05-01T00:55:14.665Z,14.63
2023-05-01T00:57:44.137Z,16.33
2023-05-01T01:00:14.217Z,16.15
2023-05-01T01:02:43.537Z,16.40
2023-05-01T01:05:12.660Z,16.85
2023-05-01T01:07:45.103Z,15.90
2023-05-01T01:10:19.540Z,16.75
2023-05-01T01:12:54.274Z,16.35
2023-05-01T01:15:28.236Z,16.50
2023-05-01T01:18:01.410Z,16.00
2023-05-01T01:20:34.171Z,15.68
2023-05-01T01:23:15.478Z,15.05
2023-05-01T01:25:58.096Z,16.63
2023-05-01T01:28:36.986Z,16.38
2023-05-01T01:31:13.226Z,17.52
2023-05-01T01:33:57.188Z,18.52
2023-05-01T01:36:33.379Z,17.95
2023-05-01T01:39:08.089Z,20.08
2023-05-01T01:41:38.901Z,18.05
2023-05-01T01:44:10.502Z,18.58
2023-05-01T01:46:41.405Z,17.70
2023-05-01T01:49:15.278Z,19.02
2023-05-01T01:51:44.991Z,18.63
2023-05-01T01:54:15.680Z,18.15
2023-05-01T01:56:45.842Z,16.73
2023-05-01T01:59:17.436Z,18.10
2023-05-01T02:01:48.298Z,16.70
2023-05-01T02:04:19.978Z,19.00
2023-05-01T02:06:50.009Z,17.15
2023-05-01T02:09:21.162Z,18.17
2023-05-01T02:11:51.516Z,18.63
2023-05-01T02:14:20.873Z,17.38
2023-05-01T02:16:50.638Z,18.63
2023-05-01T02:19:21.674Z,18.00
2023-05-01T02:21:51.471Z,17.92
2023-05-01T02:24:22.682Z,17.20
2023-05-01T02:26:54.402Z,17.13
2023-05-01T02:29:25.570Z,16.83
2023-05-01T02:31:54.992Z,17.50
2023-05-01T02:34:25.650Z,19.15
2023-05-01T02:36:54.658Z,20.25
2023-05-01T02:39:24.136Z,17.38
2023-05-01T02:41:55.090Z,17.52
2023-05-01T02:44:25.869Z,18.40
2023-05-01T02:46:55.503Z,16.95
2023-05-01T02:49:26.273Z,17.42
2023-05-01T02:51:55.373Z,18.67
2023-05-01T02:54:25.105Z,18.30
2023-05-01T02:56:54.073Z,19.92
2023-05-01T02:59:23.018Z,17.42
2023-05-01T03:01:52.436Z,20.80
2023-05-01T03:04:21.505Z,17.98
2023-05-01T03:06:51.923Z,19.60
2023-05-01T03:09:21.179Z,18.30
2023-05-01T03:11:50.189Z,18.67
2023-05-01T03:14:19.827Z,20.80
2023-05-01T03:16:49.074Z,19.25
2023-05-01T03:19:18.083Z,19.35
2023-05-01T03:21:47.023Z,17.85
2023-05-01T03:24:17.355Z,15.55
2023-05-01T03:26:47.728Z,15.75
2023-05-01T03:29:16.612Z,16.90
2023-05-01T03:31:46.210Z,17.70
2023-05-01T03:34:15.445Z,17.25
2023-05-01T03:36:44.372Z,18.52
2023-05-01T03:39:13.776Z,16.02
2023-05-01T03:42:19.311Z,17.10
2023-05-01T03:44:49.448Z,16.92
2023-05-01T03:47:19.366Z,17.42
2023-05-01T03:49:48.625Z,16.77
2023-05-01T03:52:17.829Z,15.82
2023-05-01T03:54:47.868Z,17.55
2023-05-01T03:57:27.753Z,15.93
2023-05-01T03:59:57.441Z,16.88
2023-05-01T04:02:27.727Z,16.27
2023-05-01T04:04:57.505Z,17.17
2023-05-01T04:07:26.822Z,17.38
2023-05-01T04:09:56.091Z,16.60
2023-05-01T04:12:25.156Z,16.52
2023-05-01T04:14:55.481Z,16.85
2023-05-01T04:17:25.530Z,18.92
2023-05-01T04:19:55.447Z,18.00
2023-05-01T04:22:24.719Z,17.60
2023-05-01T04:24:54.541Z,17.65
2023-05-01T04:27:23.769Z,17.23
2023-05-01T04:29:54.981Z,18.15
2023-05-01T04:32:25.141Z,22.92
2023-05-01T04:34:54.437Z,17.90
2023-05-01T04:37:24.608Z,17.65
2023-05-01T04:39:54.141Z,16.10
2023-05-01T04:42:24.896Z,14.75
2023-05-01T04:44:55.761Z,14.65
2023-05-01T04:47:24.770Z,13.85
2023-05-01T04:49:54.067Z,12.70
2023-05-01T04:52:23.423Z,12.27
2023-05-01T04:54:58.012Z,13.57
2023-05-01T04:57:29.523Z,13.68
2023-05-01T05:00:00.298Z,13.65
2023-05-01T05:02:29.778Z,14.98
2023-05-01T05:04:59.196Z,13.13
2023-05-01T05:07:29.172Z,12.88
2023-05-01T05:10:17.417Z,14.38
2023-05-01T05:12:54.501Z,13.25
2023-05-01T05:15:25.172Z,12.77
2023-05-01T05:17:56.494Z,11.98
2023-05-01T05:20:26.857Z,13.98
2023-05-01T05:22:56.285Z,15.20
2023-05-01T05:25:27.250Z,11.67
2023-05-01T05:27:56.376Z,10.80
2023-05-01T05:30:28.594Z,11.10
2023-05-01T05:32:58.398Z,13.32
2023-05-01T05:35:27.624Z,12.68
2023-05-01T05:37:57.433Z,11.35
2023-05-01T05:40:27.546Z,9.57
2023-05-01T05:42:59.304Z,10.32
2023-05-01T05:45:35.465Z,11.10
2023-05-01T05:48:05.002Z,9.68
2023-05-01T05:50:37.982Z,12.02
2023-05-01T05:53:10.106Z,10.95
2023-05-01T05:55:40.680Z,10.27
2023-05-01T05:58:11.185Z,10.27
2023-05-01T06:00:42.069Z,10.35
2023-05-01T06:03:11.945Z,10.18
2023-05-01T06:05:42.685Z,9.20
2023-05-01T06:08:14.049Z,8.77
2023-05-01T06:10:44.765Z,7.90
2023-05-01T06:13:15.646Z,7.38
2023-05-01T06:15:49.279Z,8.13
2023-05-01T06:18:19.095Z,7.63
2023-05-01T06:20:48.357Z,7.88
2023-05-01T06:23:17.515Z,8.27
2023-05-01T06:25:55.234Z,8.50
2023-05-01T06:28:24.496Z,7.03
2023-05-01T06:30:54.866Z,8.30
2023-05-01T06:33:26.158Z,7.05
2023-05-01T06:36:06.577Z,6.70
2023-05-01T06:38:35.833Z,6.28
2023-05-01T06:41:06.278Z,8.55
2023-05-01T06:43:35.513Z,8.50
2023-05-01T06:46:06.324Z,9.02
2023-05-01T06:48:35.703Z,7.35
2023-05-01T06:51:04.786Z,8.52
2023-05-01T06:53:33.901Z,7.55
2023-05-01T06:56:02.928Z,8.20
2023-05-01T06:58:31.975Z,9.18
2023-05-01T07:01:01.020Z,8.13
2023-05-01T07:03:31.440Z,8.95
2023-05-01T07:06:00.507Z,8.85
2023-05-01T07:08:29.538Z,7.40
2023-05-01T07:10:58.573Z,6.80
2023-05-01T07:13:27.878Z,6.53
2023-05-01T07:15:56.804Z,7.15
2023-05-01T07:18:25.714Z,8.15
2023-05-01T07:20:56.015Z,8.23
2023-05-01T07:23:25.902Z,8.38
2023-05-01T07:25:55.108Z,7.93
2023-05-01T07:28:24.184Z,8.80
2023-05-01T07:30:53.249Z,7.40
2023-05-01T07:33:23.386Z,6.90
2023-05-01T07:35:53.375Z,5.97
2023-05-01T07:38:23.828Z,8.63
2023-05-01T07:40:54.411Z,7.10
2023-05-01T07:43:23.346Z,7.40
2023-05-01T07:45:58.943Z,7.70
2023-05-01T07:48:28.551Z,8.63
2023-05-01T07:50:58.721Z,7.30
2023-05-01T07:53:33.185Z,7.47
2023-05-01T07:56:09.065Z,7.90
2023-05-01T07:58:38.613Z,8.30
2023-05-01T08:01:09.212Z,8.98
2023-05-01T08:03:38.957Z,8.13
2023-05-01T08:06:08.458Z,10.10
2023-05-01T08:08:39.153Z,9.55
2023-05-01T08:11:08.217Z,7.25
2023-05-01T08:13:37.673Z,8.43
2023-05-01T08:16:07.326Z,7.72
2023-05-01T08:18:37.272Z,8.43
2023-05-01T08:21:06.700Z,7.47
2023-05-01T08:23:35.841Z,8.20
2023-05-01T08:26:06.420Z,8.02
2023-05-01T08:28:37.470Z,7.72
2023-05-01T08:31:07.055Z,7.65
2023-05-01T08:33:37.094Z,8.82
2023-05-01T08:36:06.369Z,8.02
2023-05-01T08:38:37.267Z,8.40
2023-05-01T08:41:07.921Z,8.10
2023-05-01T08:43:36.978Z,8.70
2023-05-01T08:46:12.066Z,7.05
2023-05-01T08:48:43.649Z,8.10
2023-05-01T08:51:14.046Z,7.72
2023-05-01T08:53:44.384Z,14.05
2023-05-01T08:56:15.522Z,8.93
2023-05-01T08:58:45.991Z,8.30
2023-05-01T09:01:16.596Z,7.20
2023-05-01T09:03:46.022Z,6.63
2023-05-01T09:06:15.511Z,9.35
2023-05-01T09:08:44.858Z,8.10
2023-05-01T09:11:15.497Z,9.63
2023-05-01T09:13:44.670Z,7.32
2023-05-01T09:16:14.252Z,8.00
2023-05-01T09:18:43.436Z,7.75
2023-05-01T09:21:13.318Z,7.90
2023-05-01T09:23:42.274Z,6.25
2023-05-01T09:26:11.904Z,6.72
2023-05-01T09:28:43.835Z,7.45
2023-05-01T09:31:32.676Z,6.72
2023-05-01T09:34:02.715Z,7.03
2023-05-01T09:36:33.011Z,6.90
2023-05-01T09:39:02.983Z,5.38
2023-05-01T09:41:35.877Z,11.02
2023-05-01T09:44:06.525Z,6.30
2023-05-01T09:46:43.909Z,5.50
2023-05-01T09:49:13.280Z,5.40
2023-05-01T09:51:43.447Z,5.50
2023-05-01T09:54:19.710Z,7.30
2023-05-01T09:56:49.448Z,5.75
2023-05-01T09:59:20.841Z,4.95
2023-05-01T10:01:52.254Z,5.38
2023-05-01T10:04:32.064Z,6.63
2023-05-01T10:07:02.196Z,5.43
2023-05-01T10:09:32.442Z,6.65
2023-05-01T10:12:05.075Z,6.30
2023-05-01T10:14:38.768Z,6.20
2023-05-01T10:17:19.884Z,6.55
2023-05-01T10:19:49.208Z,6.18
2023-05-01T10:22:19.058Z,7.53
2023-05-01T10:24:48.372Z,7.35
2023-05-01T10:27:17.417Z,6.47
2023-05-01T10:29:49.067Z,6.40
2023-05-01T10:32:18.426Z,5.53
2023-05-01T10:34:49.814Z,13.50
2023-05-01T10:37:21.638Z,7.07
2023-05-01T10:39:50.816Z,7.22
2023-05-01T10:42:20.075Z,5.03
2023-05-01T10:44:50.829Z,5.57
2023-05-01T10:47:41.562Z,5.75
2023-05-01T10:50:11.314Z,6.28
2023-05-01T10:52:59.051Z,5.72
2023-05-01T10:55:34.066Z,8.07
2023-05-01T10:58:03.809Z,5.43
2023-05-01T11:00:34.549Z,5.18
2023-05-01T11:03:23.186Z,5.70
2023-05-01T11:06:10.463Z,6.28
2023-05-01T11:08:40.594Z,6.20
2023-05-01T11:11:28.950Z,5.85
2023-05-01T11:13:59.391Z,6.53
2023-05-01T11:16:49.645Z,6.93
2023-05-01T11:19:38.253Z,6.13
2023-05-01T11:22:14.205Z,6.78
2023-05-01T11:24:44.012Z,7.53
2023-05-01T11:27:16.689Z,6.70
2023-05-01T11:29:49.887Z,7.15
2023-05-01T11:32:24.713Z,7.15
2023-05-01T11:34:54.670Z,5.43
2023-05-01T11:37:42.864Z,5.45
2023-05-01T11:40:22.467Z,7.35
2023-05-01T11:42:51.597Z,7.05
2023-05-01T11:45:21.135Z,6.55
2023-05-01T11:47:51.770Z,5.72
2023-05-01T11:50:21.933Z,6.45
2023-05-01T11:52:53.679Z,7.03
2023-05-01T11:55:23.267Z,5.53
2023-05-01T11:57:53.075Z,4.30
2023-05-01T12:00:29.647Z,4.90
2023-05-01T12:03:02.487Z,7.30
2023-05-01T12:05:32.659Z,5.60
2023-05-01T12:08:08.216Z,5.75
2023-05-01T12:10:37.902Z,6.32
2023-05-01T12:13:07.687Z,6.75
2023-05-01T12:15:37.799Z,7.45
2023-05-01T12:18:08.593Z,5.90
2023-05-01T12:20:38.692Z,5.28
2023-05-01T12:23:08.434Z,5.00
2023-05-01T12:25:39.505Z,4.05
2023-05-01T12:28:13.167Z,5.15
2023-05-01T12:30:43.818Z,4.63
2023-05-01T12:33:15.335Z,4.55
2023-05-01T12:35:46.795Z,4.57
2023-05-01T12:38:17.329Z,5.63
2023-05-01T12:40:54.009Z,4.47
2023-05-01T12:43:24.036Z,6.07
2023-05-01T12:45:54.197Z,5.93
2023-05-01T12:48:26.384Z,6.13
2023-05-01T12:50:55.854Z,5.07
2023-05-01T12:53:25.487Z,7.15
2023-05-01T12:55:55.600Z,6.88
2023-05-01T12:58:24.983Z,5.75
2023-05-01T13:00:54.753Z,5.68
2023-05-01T13:03:27.007Z,6.15
2023-05-01T13:05:57.486Z,5.70
2023-05-01T13:08:30.735Z,5.38
2023-05-01T13:11:00.680Z,5.90
2023-05-01T13:13:31.769Z,6.57
2023-05-01T13:16:14.152Z,6.38
2023-05-01T13:21:15.700Z,6.38
2023-05-01T13:23:53.540Z,5.90
2023-05-01T13:26:27.865Z,6.35
2023-05-01T13:28:58.722Z,6.82
2023-05-01T13:31:28.250Z,6.32
2023-05-01T13:33:59.745Z,7.18
2023-05-01T13:36:33.582Z,5.95
2023-05-01T13:39:03.242Z,6.50
2023-05-01T13:41:32.372Z,5.82
2023-05-01T13:44:04.818Z,6.90
2023-05-01T13:46:37.919Z,6.05
2023-05-01T13:49:09.196Z,6.47
2023-05-01T13:51:43.720Z,5.93
2023-05-01T13:54:13.262Z,5.68
2023-05-01T13:56:43.266Z,6.57
2023-05-01T13:59:12.952Z,5.10
2023-05-01T14:01:46.651Z,6.20
2023-05-01T14:04:18.380Z,6.47
2023-05-01T14:06:49.977Z,7.07
2023-05-01T14:09:19.681Z,6.28
2023-05-01T14:11:52.411Z,6.25
2023-05-01T14:14:21.541Z,6.60
2023-05-01T14:16:51.087Z,7.25
2023-05-01T14:19:20.148Z,7.25
2023-05-01T14:21:50.636Z,6.32
2023-05-01T14:24:19.745Z,6.00
2023-05-01T14:26:50.388Z,6.63
2023-05-01T14:29:24.003Z,6.70
2023-05-01T14:31:54.370Z,5.97
2023-05-01T14:34:24.172Z,6.65
2023-05-01T14:36:56.310Z,6.60
2023-05-01T14:41:54.440Z,7.78
2023-05-01T14:44:26.622Z,5.82
2023-05-01T14:46:58.866Z,6.15
2023-05-01T14:49:28.216Z,6.45
2023-05-01T14:51:59.253Z,6.28
2023-05-01T14:54:28.821Z,6.30
2023-05-01T14:56:58.431Z,5.78
2023-05-01T14:59:28.294Z,6.28
2023-05-01T15:01:57.917Z,6.90
2023-05-01T15:04:28.274Z,7.18
2023-05-01T15:06:59.414Z,5.35
2023-05-01T15:09:32.113Z,5.05
2023-05-01T15:12:01.384Z,6.20
2023-05-01T15:14:30.880Z,5.97
2023-05-01T15:17:01.148Z,4.97
2023-05-01T15:19:33.632Z,5.10
2023-05-01T15:22:13.967Z,6.03
2023-05-01T15:24:46.752Z,4.83
2023-05-01T15:29:49.379Z,5.73
2023-05-01T15:32:19.371Z,5.30
2023-05-01T15:34:50.158Z,5.22
2023-05-01T15:37:20.702Z,6.22
2023-05-01T15:39:53.919Z,5.47
2023-05-01T15:45:21.251Z,5.63
2023-05-01T15:47:58.181Z,5.53
2023-05-01T15:50:31.967Z,4.95
2023-05-01T15:53:28.133Z,4.63
2023-05-01T15:56:08.552Z,3.90
2023-05-01T15:58:41.059Z,6.30
2023-05-01T16:01:15.544Z,6.50
2023-05-01T16:03:49.301Z,5.32
2023-05-01T16:06:18.878Z,5.70
2023-05-01T16:08:49.718Z,5.53
2023-05-01T16:11:19.179Z,6.22
2023-05-01T16:13:48.637Z,6.40
2023-05-01T16:16:21.470Z,5.40
2023-05-01T16:18:53.885Z,4.88
2023-05-01T16:21:23.349Z,5.47
2023-05-01T16:24:07.459Z,5.20
2023-05-01T16:26:36.864Z,5.38
2023-05-01T16:29:07.816Z,5.38
2023-05-01T16:31:41.138Z,5.67
2023-05-01T16:34:16.021Z,6.32
2023-05-01T16:36:46.878Z,4.97
2023-05-01T16:39:20.912Z,6.32
2023-05-01T16:41:51.271Z,5.00
2023-05-01T16:44:20.952Z,5.65
2023-05-01T16:46:53.516Z,6.43
2023-05-01T16:49:23.990Z,6.18
2023-05-01T16:51:56.515Z,5.13
2023-05-01T16:54:31.954Z,6.63
2023-05-01T16:57:02.305Z,6.35
2023-05-01T16:59:31.918Z,7.40
2023-05-01T17:02:01.352Z,6.88
2023-05-01T17:04:30.683Z,6.63
2023-05-01T17:07:01.912Z,5.90
2023-05-01T17:09:32.764Z,5.93
2023-05-01T17:12:03.762Z,5.30
2023-05-01T17:14:32.924Z,5.65
2023-05-01T17:17:02.575Z,4.60
2023-05-01T17:19:32.372Z,4.72
2023-05-01T17:22:03.140Z,5.35
2023-05-01T17:24:38.957Z,6.50
2023-05-01T17:27:11.136Z,5.57
2023-05-01T17:29:41.776Z,5.35
2023-05-01T17:32:11.266Z,5.60
2023-05-01T17:34:42.081Z,5.00
2023-05-01T17:37:11.775Z,4.78
2023-05-01T17:39:42.331Z,4.28
2023-05-01T17:42:14.299Z,6.28
2023-05-01T17:47:14.550Z,6.00
2023-05-01T17:49:43.948Z,4.57
2023-05-01T17:52:14.220Z,4.63
2023-05-01T17:54:46.504Z,3.92
2023-05-01T17:57:20.992Z,5.05
2023-05-01T17:59:51.244Z,4.80
2023-05-01T18:02:21.123Z,5.05
2023-05-01T18:04:51.128Z,4.30
2023-05-01T18:07:20.826Z,5.13
2023-05-01T18:09:52.126Z,4.65
2023-05-01T18:12:21.955Z,5.18
2023-05-01T18:14:51.316Z,5.82
2023-05-01T18:17:20.821Z,6.13
2023-05-01T18:19:50.153Z,4.63
2023-05-01T18:22:19.341Z,5.20
2023-05-01T18:24:48.390Z,5.82
2023-05-01T18:27:18.935Z,6.38
2023-05-01T18:29:47.926Z,5.60
2023-05-01T18:32:17.392Z,5.95
2023-05-01T18:34:46.913Z,6.75
2023-05-01T18:37:16.130Z,6.53
2023-05-01T18:39:45.525Z,5.53
2023-05-01T18:42:15.917Z,6.30
2023-05-01T18:44:46.857Z,5.97
2023-05-01T18:47:16.498Z,6.72
2023-05-01T18:49:45.610Z,7.38
2023-05-01T18:52:15.743Z,6.18
2023-05-01T18:54:45.060Z,7.82
2023-05-01T19:00:01.195Z,7.75
2023-05-01T19:02:31.512Z,8.98
2023-05-01T19:05:01.371Z,27.60
2023-05-01T19:07:35.469Z,8.38
2023-05-01T19:10:04.957Z,9.57
2023-05-01T19:12:35.192Z,8.45
2023-05-01T19:15:06.106Z,8.02
2023-05-01T19:17:35.172Z,8.73
2023-05-01T19:20:04.760Z,8.45
2023-05-01T19:22:33.854Z,8.48
2023-05-01T19:25:03.633Z,6.18
2023-05-01T19:27:33.550Z,7.38
2023-05-01T19:30:03.265Z,10.40
2023-05-01T19:32:34.468Z,6.82
2023-05-01T19:35:03.729Z,16.58
2023-05-01T19:37:32.841Z,7.72
2023-05-01T19:40:02.696Z,5.57
2023-05-01T19:42:32.312Z,7.13
2023-05-01T19:45:02.628Z,7.35
2023-05-01T19:47:31.803Z,7.85
2023-05-01T19:50:02.543Z,6.50
2023-05-01T19:52:32.203Z,7.68
2023-05-01T19:55:03.113Z,7.65
2023-05-01T19:57:33.783Z,7.03
2023-05-01T20:00:05.259Z,7.57
2023-05-01T20:02:39.355Z,7.50
2023-05-01T20:05:10.762Z,8.13
2023-05-01T20:07:39.886Z,8.07
2023-05-01T20:10:09.759Z,6.43
2023-05-01T20:12:39.300Z,7.28
2023-05-01T20:15:08.781Z,7.10
2023-05-01T20:17:37.848Z,7.68
2023-05-01T20:20:07.214Z,7.00
2023-05-01T20:22:37.524Z,5.57
2023-05-01T20:25:09.368Z,6.50
2023-05-01T20:30:10.556Z,6.38
2023-05-01T20:32:42.634Z,6.90
2023-05-01T20:35:12.168Z,7.82
2023-05-01T20:37:42.545Z,7.60
2023-05-01T20:40:12.307Z,8.07
2023-05-01T20:42:42.170Z,7.35
2023-05-01T20:45:12.648Z,7.75
2023-05-01T20:47:41.735Z,7.35
2023-05-01T20:50:11.491Z,7.15
2023-05-01T20:52:42.133Z,12.23
2023-05-01T20:55:11.914Z,10.07
2023-05-01T20:57:41.503Z,8.90
2023-05-01T21:00:11.293Z,7.80
2023-05-01T21:02:43.277Z,9.93
2023-05-01T21:05:12.546Z,8.90
2023-05-01T21:07:43.143Z,7.85
2023-05-01T21:10:17.383Z,7.25
2023-05-01T21:12:46.722Z,9.32
2023-05-01T21:15:16.326Z,8.40
2023-05-01T21:17:45.373Z,8.70
2023-05-01T21:20:17.338Z,7.88
2023-05-01T21:22:50.355Z,10.23
2023-05-01T21:25:29.923Z,10.15
2023-05-01T21:28:01.866Z,7.55
2023-05-01T21:33:00.771Z,7.30
2023-05-01T21:35:30.768Z,8.93
2023-05-01T21:38:01.513Z,7.00
2023-05-01T21:40:31.360Z,7.45
2023-05-01T21:43:02.297Z,7.32
2023-05-01T21:45:36.696Z,6.35
2023-05-01T21:48:06.316Z,7.22
2023-05-01T21:50:36.695Z,7.20
2023-05-01T21:53:07.690Z,6.10
2023-05-01T21:55:36.919Z,6.30
2023-05-01T21:58:06.547Z,6.30
2023-05-01T22:00:35.849Z,6.18
2023-05-01T22:03:07.008Z,5.75
2023-05-01T22:05:41.166Z,6.03
2023-05-01T22:08:12.131Z,6.00
2023-05-01T22:10:43.096Z,5.88
2023-05-01T22:13:12.632Z,5.25
2023-05-01T22:15:42.557Z,4.68
2023-05-01T22:18:14.655Z,6.20
2023-05-01T22:20:43.791Z,5.97
2023-05-01T22:23:14.578Z,5.35
2023-05-01T22:25:43.833Z,5.22
2023-05-01T22:28:13.701Z,5.47
2023-05-01T22:30:44.580Z,5.78
2023-05-01T22:33:14.697Z,5.85
2023-05-01T22:35:44.646Z,5.57
2023-05-01T22:38:15.460Z,4.90
2023-05-01T22:40:44.707Z,5.97
2023-05-01T22:43:14.809Z,5.70
2023-05-01T22:45:44.335Z,4.80
2023-05-01T22:48:13.990Z,4.88
2023-05-01T22:50:43.877Z,4.80
2023-05-01T22:53:13.257Z,5.13
2023-05-01T22:55:44.329Z,4.80
2023-05-01T22:58:14.032Z,6.10
2023-05-01T23:00:43.853Z,5.53
2023-05-01T23:03:15.744Z,5.78
2023-05-01T23:05:44.921Z,5.80
2023-05-01T23:08:14.454Z,6.40
2023-05-01T23:10:46.414Z,4.78
2023-05-01T23:13:24.422Z,5.20
2023-05-01T23:15:53.722Z,5.72
2023-05-01T23:18:25.244Z,4.45
2023-05-01T23:20:55.663Z,5.60
2023-05-01T23:23:31.253Z,4.90
2023-05-01T23:26:01.837Z,4.90
2023-05-01T23:28:30.959Z,5.38
2023-05-01T23:31:01.233Z,5.40
2023-05-01T23:33:36.989Z,5.65
2023-05-01T23:36:06.649Z,4.97
2023-05-01T23:38:36.057Z,4.97
2023-05-01T23:41:07.924Z,4.88
2023-05-01T23:43:38.010Z,5.05
2023-05-01T23:46:07.944Z,5.65
2023-05-01T23:48:37.061Z,5.82
2023-05-01T23:51:06.529Z,5.82
2023-05-01T23:53:35.586Z,5.82
2023-05-01T23:56:04.573Z,5.60
2023-05-01T23:58:34.896Z,6.15
